createdAt,value
2023-02-24T00:00:34.189Z,11.70
2023-02-24T00:03:06.114Z,12.47
2023-02-24T00:05:34.539Z,10.40
2023-02-24T00:08:01.135Z,10.90
2023-02-24T00:10:27.914Z,10.50
2023-02-24T00:12:54.509Z,11.07
2023-02-24T00:15:20.977Z,11.17
2023-02-24T00:17:47.437Z,11.23
2023-02-24T00:20:21.721Z,11.53
2023-02-24T00:22:48.302Z,10.93
2023-02-24T00:25:14.901Z,9.93
2023-02-24T00:27:42.602Z,10.40
2023-02-24T00:30:11.670Z,10.50
2023-02-24T00:32:38.648Z,10.20
2023-02-24T00:35:05.837Z,9.93
2023-02-24T00:37:33.294Z,10.03
2023-02-24T00:39:59.909Z,10.47
2023-02-24T00:42:26.404Z,10.10
2023-02-24T00:44:54.284Z,11.70
2023-02-24T00:47:22.594Z,9.80
2023-02-24T00:49:50.222Z,9.93
2023-02-24T00:52:20.943Z,9.43
2023-02-24T00:54:49.094Z,10.73
2023-02-24T00:57:18.332Z,12.50
2023-02-24T00:59:47.864Z,10.57
2023-02-24T01:02:15.025Z,11.07
2023-02-24T01:04:41.632Z,10.40
2023-02-24T01:07:11.139Z,12.27
2023-02-24T01:09:40.357Z,10.63
2023-02-24T01:12:27.678Z,11.00
2023-02-24T01:14:54.258Z,9.90
2023-02-24T01:17:22.354Z,10.87
2023-02-24T01:19:50.019Z,9.80
2023-02-24T01:22:18.134Z,8.67
2023-02-24T01:24:45.063Z,10.10
2023-02-24T01:27:18.725Z,9.27
2023-02-24T01:29:46.993Z,9.77
2023-02-24T01:32:17.389Z,11.13
2023-02-24T01:34:44.965Z,9.90
2023-02-24T01:37:16.758Z,9.20
2023-02-24T01:39:44.571Z,11.47
2023-02-24T01:42:16.819Z,10.50
2023-02-24T01:44:43.775Z,9.30
2023-02-24T01:47:10.988Z,9.37
2023-02-24T01:49:42.872Z,9.73
2023-02-24T01:52:19.293Z,8.70
2023-02-24T01:54:59.829Z,9.77
2023-02-24T01:57:30.065Z,9.77
2023-02-24T02:00:02.326Z,10.50
2023-02-24T02:02:29.230Z,10.30
2023-02-24T02:04:58.625Z,10.10
2023-02-24T02:07:27.909Z,10.80
2023-02-24T02:09:55.154Z,9.80
2023-02-24T02:12:23.213Z,9.63
2023-02-24T02:14:52.438Z,9.40
2023-02-24T02:17:43.663Z,9.53
2023-02-24T02:20:33.698Z,9.17
2023-02-24T02:23:38.803Z,10.73
2023-02-24T02:26:35.861Z,10.20
2023-02-24T02:29:25.430Z,10.80
2023-02-24T02:32:12.987Z,9.27
2023-02-24T02:34:45.725Z,10.43
2023-02-24T02:37:15.484Z,9.47
2023-02-24T02:39:50.942Z,9.60
2023-02-24T02:42:30.331Z,9.67
2023-02-24T02:45:05.297Z,10.50
2023-02-24T02:47:47.996Z,10.73
2023-02-24T02:50:19.428Z,9.23
2023-02-24T02:52:56.714Z,9.67
2023-02-24T02:55:47.030Z,9.80
2023-02-24T02:58:17.054Z,10.27
2023-02-24T03:00:59.252Z,9.00
2023-02-24T03:03:29.071Z,9.53
2023-02-24T03:06:04.198Z,9.50
2023-02-24T03:08:34.377Z,9.00
2023-02-24T03:11:02.378Z,7.87
2023-02-24T03:13:32.025Z,8.50
2023-02-24T03:16:03.662Z,8.30
2023-02-24T03:18:32.856Z,9.13
2023-02-24T03:21:07.708Z,9.17
2023-02-24T03:23:38.370Z,9.10
2023-02-24T03:26:10.636Z,9.27
2023-02-24T03:28:39.749Z,8.97
2023-02-24T03:31:23.902Z,8.47
2023-02-24T03:34:03.904Z,8.83
2023-02-24T03:36:31.021Z,8.70
2023-02-24T03:38:58.788Z,10.00
2023-02-24T03:41:30.689Z,8.83
2023-02-24T03:43:58.185Z,9.33
2023-02-24T03:46:24.935Z,10.23
2023-02-24T03:49:00.187Z,10.47
2023-02-24T03:51:27.773Z,9.13
2023-02-24T03:54:30.792Z,9.40
2023-02-24T03:57:05.789Z,9.83
2023-02-24T03:59:48.536Z,8.53
2023-02-24T04:02:21.750Z,8.47
2023-02-24T04:05:05.812Z,8.07
2023-02-24T04:07:52.375Z,8.53
2023-02-24T04:10:41.926Z,8.10
2023-02-24T04:13:19.834Z,8.40
2023-02-24T04:15:59.004Z,8.10
2023-02-24T04:18:29.798Z,8.40
2023-02-24T04:20:59.725Z,8.30
2023-02-24T04:23:31.752Z,8.27
2023-02-24T04:25:58.478Z,8.63
2023-02-24T04:28:26.035Z,8.30
2023-02-24T04:30:58.637Z,8.10
2023-02-24T04:33:25.866Z,8.60
2023-02-24T04:35:53.437Z,9.20
2023-02-24T04:38:20.277Z,8.33
2023-02-24T04:40:46.930Z,8.33
2023-02-24T04:43:13.544Z,8.70
2023-02-24T04:45:40.462Z,8.87
2023-02-24T04:48:12.798Z,9.57
2023-02-24T04:50:42.450Z,8.67
2023-02-24T04:53:12.193Z,9.47
2023-02-24T04:55:41.262Z,7.77
2023-02-24T04:58:11.819Z,8.77
2023-02-24T05:00:41.654Z,9.90
2023-02-24T05:03:14.317Z,9.17
2023-02-24T05:05:43.016Z,10.40
2023-02-24T05:08:10.897Z,9.37
2023-02-24T05:10:43.891Z,9.07
2023-02-24T05:13:25.462Z,8.53
2023-02-24T05:15:51.984Z,9.80
2023-02-24T05:18:19.097Z,9.30
2023-02-24T05:21:09.567Z,8.63
2023-02-24T05:23:44.433Z,9.60
2023-02-24T05:26:16.050Z,10.00
2023-02-24T05:28:44.258Z,8.80
2023-02-24T05:31:17.595Z,8.90
2023-02-24T05:33:46.255Z,9.23
2023-02-24T05:36:17.232Z,8.10
2023-02-24T05:38:48.752Z,9.90
2023-02-24T05:41:17.600Z,8.77
2023-02-24T05:43:53.150Z,7.90
2023-02-24T05:46:28.392Z,7.53
2023-02-24T05:49:00.692Z,8.07
2023-02-24T05:51:36.096Z,8.37
2023-02-24T05:54:05.195Z,8.17
2023-02-24T05:56:33.020Z,8.60
2023-02-24T05:59:04.621Z,8.87
2023-02-24T06:01:36.157Z,8.60
2023-02-24T06:04:07.516Z,11.50
2023-02-24T06:06:41.761Z,8.93
2023-02-24T06:09:12.808Z,8.90
2023-02-24T06:11:43.247Z,8.80
2023-02-24T06:14:11.229Z,9.10
2023-02-24T06:16:43.447Z,8.77
2023-02-24T06:19:12.071Z,9.80
2023-02-24T06:21:44.063Z,9.40
2023-02-24T06:24:16.114Z,8.50
2023-02-24T06:26:46.018Z,8.60
2023-02-24T06:29:14.849Z,8.50
2023-02-24T06:31:42.906Z,7.87
2023-02-24T06:34:11.336Z,9.17
2023-02-24T06:36:38.126Z,8.23
2023-02-24T06:39:08.290Z,7.93
2023-02-24T06:41:38.129Z,7.67
2023-02-24T06:44:04.755Z,8.77
2023-02-24T06:46:31.333Z,8.43
2023-02-24T06:49:01.011Z,7.30
2023-02-24T06:51:30.773Z,7.43
2023-02-24T06:53:57.873Z,7.90
2023-02-24T06:56:24.640Z,7.63
2023-02-24T06:58:52.857Z,7.70
2023-02-24T07:01:22.309Z,8.20
2023-02-24T07:04:07.279Z,8.00
2023-02-24T07:06:35.859Z,8.10
2023-02-24T07:09:07.247Z,7.90
2023-02-24T07:11:35.278Z,7.90
2023-02-24T07:14:02.418Z,8.53
2023-02-24T07:16:29.353Z,9.10
2023-02-24T07:18:58.416Z,8.80
2023-02-24T07:21:26.569Z,7.87
2023-02-24T07:23:58.864Z,9.10
2023-02-24T07:26:27.882Z,7.90
2023-02-24T07:28:55.227Z,8.00
2023-02-24T07:31:24.702Z,8.00
2023-02-24T07:33:57.213Z,8.30
2023-02-24T07:36:24.798Z,7.97
2023-02-24T07:38:53.024Z,8.90
2023-02-24T07:41:23.044Z,8.50
2023-02-24T07:43:51.759Z,8.90
2023-02-24T07:46:28.157Z,8.50
2023-02-24T07:48:55.867Z,8.07
2023-02-24T07:51:27.702Z,8.00
2023-02-24T07:53:57.095Z,7.40
2023-02-24T07:56:31.056Z,8.30
2023-02-24T07:59:00.599Z,7.90
2023-02-24T08:01:28.645Z,8.67
2023-02-24T08:03:57.645Z,8.30
2023-02-24T08:06:33.280Z,8.90
2023-02-24T08:09:00.514Z,8.03
2023-02-24T08:11:37.246Z,7.40
2023-02-24T08:14:13.959Z,8.77
2023-02-24T08:16:44.920Z,8.27
2023-02-24T08:19:20.882Z,8.23
2023-02-24T08:21:52.907Z,7.23
2023-02-24T08:24:25.321Z,9.27
2023-02-24T08:27:05.637Z,8.03
2023-02-24T08:29:58.047Z,8.33
2023-02-24T08:32:25.925Z,8.37
2023-02-24T08:34:56.789Z,7.50
2023-02-24T08:37:25.333Z,8.20
2023-02-24T08:39:54.079Z,7.20
2023-02-24T08:42:24.394Z,8.30
2023-02-24T08:44:53.910Z,8.30
2023-02-24T08:47:24.510Z,7.50
2023-02-24T08:49:53.878Z,9.03
2023-02-24T08:52:20.375Z,8.87
2023-02-24T08:54:49.344Z,7.80
2023-02-24T08:57:18.227Z,8.23
2023-02-24T08:59:50.135Z,8.20
2023-02-24T09:02:24.858Z,7.40
2023-02-24T09:05:13.180Z,8.37
2023-02-24T09:07:42.003Z,6.97
2023-02-24T09:10:17.793Z,7.23
2023-02-24T09:12:44.775Z,7.60
2023-02-24T09:15:15.659Z,7.57
2023-02-24T09:17:46.594Z,7.53
2023-02-24T09:20:25.956Z,7.53
2023-02-24T09:23:08.968Z,7.80
2023-02-24T09:25:41.145Z,7.53
2023-02-24T09:28:17.385Z,8.33
2023-02-24T09:30:55.979Z,7.67
2023-02-24T09:33:52.181Z,7.60
2023-02-24T09:36:20.860Z,6.63
2023-02-24T09:39:02.133Z,7.77
2023-02-24T09:41:32.605Z,7.43
2023-02-24T09:44:07.707Z,7.57
2023-02-24T09:46:39.431Z,6.63
2023-02-24T09:49:14.793Z,7.93
2023-02-24T09:51:44.057Z,7.27
2023-02-24T09:54:19.567Z,7.17
2023-02-24T09:57:08.711Z,8.13
2023-02-24T10:00:01.496Z,7.33
2023-02-24T10:02:44.768Z,6.90
2023-02-24T10:05:28.578Z,6.87
2023-02-24T10:07:57.249Z,7.90
2023-02-24T10:10:29.818Z,7.00
2023-02-24T10:13:17.526Z,7.53
2023-02-24T10:15:57.547Z,8.13
2023-02-24T10:18:33.333Z,7.53
2023-02-24T10:21:30.823Z,8.00
2023-02-24T10:24:23.271Z,7.67
2023-02-24T10:27:08.309Z,7.87
2023-02-24T10:29:43.294Z,7.40
2023-02-24T10:32:17.103Z,7.53
2023-02-24T10:34:44.687Z,7.93
2023-02-24T10:37:27.545Z,7.33
2023-02-24T10:40:09.866Z,7.77
2023-02-24T10:42:44.625Z,7.60
2023-02-24T10:45:20.069Z,8.30
2023-02-24T10:47:58.198Z,8.37
2023-02-24T10:50:31.731Z,7.93
2023-02-24T10:53:05.976Z,7.90
2023-02-24T10:55:45.727Z,7.57
2023-02-24T10:58:28.389Z,7.47
2023-02-24T11:01:18.637Z,7.90
2023-02-24T11:04:01.396Z,7.33
2023-02-24T11:06:40.537Z,7.33
2023-02-24T11:09:18.565Z,7.20
2023-02-24T11:12:07.140Z,6.70
2023-02-24T11:14:58.941Z,6.60
2023-02-24T11:17:27.672Z,7.40
2023-02-24T11:20:10.937Z,7.17
2023-02-24T11:22:42.284Z,7.33
2023-02-24T11:25:22.938Z,6.47
2023-02-24T11:27:49.527Z,7.33
2023-02-24T11:30:34.818Z,7.67
2023-02-24T11:33:20.400Z,7.87
2023-02-24T11:35:56.742Z,8.50
2023-02-24T11:38:32.613Z,7.50
2023-02-24T11:41:05.462Z,7.20
2023-02-24T11:43:34.974Z,7.60
2023-02-24T11:46:10.501Z,6.90
2023-02-24T11:48:52.552Z,6.50
2023-02-24T11:51:23.494Z,8.43
2023-02-24T11:54:06.794Z,7.10
2023-02-24T11:56:45.385Z,6.70
2023-02-24T11:59:23.046Z,7.37
2023-02-24T12:01:59.391Z,6.47
2023-02-24T12:04:40.763Z,6.30
2023-02-24T12:07:23.922Z,7.13
2023-02-24T12:10:15.580Z,8.47
2023-02-24T12:13:15.270Z,9.93
2023-02-24T12:15:46.822Z,7.30
2023-02-24T12:18:27.754Z,5.90
2023-02-24T12:21:00.920Z,6.63
2023-02-24T12:23:34.353Z,6.40
2023-02-24T12:26:14.281Z,7.60
2023-02-24T12:29:29.876Z,7.10
2023-02-24T12:32:08.080Z,7.30
2023-02-24T12:35:00.219Z,7.53
2023-02-24T12:37:48.621Z,6.70
2023-02-24T12:40:32.600Z,6.30
2023-02-24T12:43:24.073Z,7.83
2023-02-24T12:46:14.026Z,6.87
2023-02-24T12:49:18.033Z,7.57
2023-02-24T12:52:22.279Z,8.73
2023-02-24T12:54:58.134Z,8.67
2023-02-24T12:57:45.858Z,7.20
2023-02-24T13:00:30.794Z,7.20
2023-02-24T13:03:09.740Z,8.13
2023-02-24T13:05:47.958Z,8.77
2023-02-24T13:08:36.617Z,8.77
2023-02-24T13:11:14.346Z,9.30
2023-02-24T13:13:50.580Z,8.80
2023-02-24T13:16:27.773Z,7.80
2023-02-24T13:19:23.952Z,8.10
2023-02-24T13:22:11.548Z,8.20
2023-02-24T13:24:41.058Z,10.13
2023-02-24T13:27:21.593Z,9.13
2023-02-24T13:29:55.141Z,9.40
2023-02-24T13:32:36.669Z,9.33
2023-02-24T13:35:23.585Z,8.70
2023-02-24T13:37:50.666Z,10.27
2023-02-24T13:40:23.381Z,10.07
2023-02-24T13:42:57.854Z,10.53
2023-02-24T13:45:26.284Z,10.37
2023-02-24T13:48:11.517Z,10.00
2023-02-24T13:50:44.462Z,10.00
2023-02-24T13:53:50.404Z,9.53
2023-02-24T13:56:31.776Z,10.60
2023-02-24T13:59:26.402Z,10.33
2023-02-24T14:02:12.941Z,9.70
2023-02-24T14:04:49.505Z,10.33
2023-02-24T14:07:21.424Z,9.53
2023-02-24T14:09:52.330Z,9.73
2023-02-24T14:12:26.156Z,10.27
2023-02-24T14:14:53.427Z,10.30
2023-02-24T14:17:28.860Z,10.03
2023-02-24T14:20:19.537Z,8.77
2023-02-24T14:22:59.266Z,8.20
2023-02-24T14:25:36.349Z,10.10
2023-02-24T14:28:03.084Z,9.10
2023-02-24T14:30:38.757Z,9.50
2023-02-24T14:33:07.670Z,8.87
2023-02-24T14:35:39.099Z,8.73
2023-02-24T14:38:06.264Z,8.70
2023-02-24T14:40:33.694Z,11.20
2023-02-24T14:43:00.374Z,10.13
2023-02-24T14:45:28.717Z,11.33
2023-02-24T14:47:56.328Z,9.27
2023-02-24T14:50:29.820Z,10.07
2023-02-24T14:53:01.208Z,8.00
2023-02-24T14:55:40.437Z,9.00
2023-02-24T14:58:07.026Z,8.10
2023-02-24T15:00:36.982Z,9.47
2023-02-24T15:03:27.159Z,8.53
2023-02-24T15:05:56.011Z,8.63
2023-02-24T15:08:34.117Z,8.33
2023-02-24T15:11:00.986Z,9.13
2023-02-24T15:13:35.929Z,8.40
2023-02-24T15:16:14.709Z,10.00
2023-02-24T15:18:42.032Z,8.23
2023-02-24T15:21:20.065Z,8.77
2023-02-24T15:23:47.120Z,9.07
2023-02-24T15:26:28.301Z,8.90
2023-02-24T15:29:22.896Z,8.30
2023-02-24T15:31:51.545Z,8.93
2023-02-24T15:34:29.906Z,8.27
2023-02-24T15:37:00.149Z,8.27
2023-02-24T15:39:32.018Z,9.47
2023-02-24T15:42:09.482Z,8.73
2023-02-24T15:44:36.509Z,8.97
2023-02-24T15:47:21.175Z,9.23
2023-02-24T15:49:47.683Z,8.00
2023-02-24T15:52:14.642Z,8.80
2023-02-24T15:54:43.358Z,8.43
2023-02-24T15:57:10.685Z,8.03
2023-02-24T15:59:37.248Z,9.43
2023-02-24T16:02:05.922Z,12.23
2023-02-24T16:04:32.449Z,39.43
2023-02-24T16:06:59.087Z,40.90
2023-02-24T16:09:37.711Z,24.10
2023-02-24T16:12:10.928Z,13.40
2023-02-24T16:14:37.982Z,11.10
2023-02-24T16:17:08.870Z,9.23
2023-02-24T16:19:37.277Z,8.90
2023-02-24T16:22:03.778Z,10.47
2023-02-24T16:24:30.311Z,15.37
2023-02-24T16:26:56.879Z,13.07
2023-02-24T16:29:23.382Z,10.60
2023-02-24T16:31:50.153Z,10.87
2023-02-24T16:34:16.944Z,13.20
2023-02-24T16:36:43.883Z,15.40
2023-02-24T16:39:12.344Z,14.50
2023-02-24T16:41:38.961Z,14.67
2023-02-24T16:44:05.522Z,34.83
2023-02-24T16:46:39.991Z,21.70
2023-02-24T16:49:08.604Z,8.00
2023-02-24T16:51:35.569Z,22.33
2023-02-24T16:54:02.587Z,10.03
2023-02-24T16:56:29.126Z,9.93
2023-02-24T16:58:55.730Z,7.57
2023-02-24T17:01:22.357Z,8.57
2023-02-24T17:03:50.454Z,8.50
2023-02-24T17:06:17.031Z,8.73
2023-02-24T17:08:45.854Z,9.00
2023-02-24T17:11:20.620Z,7.80
2023-02-24T17:13:47.253Z,7.77
2023-02-24T17:16:13.874Z,7.60
2023-02-24T17:18:40.552Z,8.57
2023-02-24T17:21:07.153Z,8.30
2023-02-24T17:23:33.767Z,8.23
2023-02-24T17:26:01.835Z,9.30
2023-02-24T17:28:28.594Z,8.37
2023-02-24T17:30:55.236Z,8.23
2023-02-24T17:33:21.955Z,8.67
2023-02-24T17:35:48.646Z,10.37
2023-02-24T17:38:17.372Z,14.27
2023-02-24T17:40:44.968Z,14.10
2023-02-24T17:43:12.108Z,12.20
2023-02-24T17:45:43.151Z,9.40
2023-02-24T17:48:10.111Z,9.60
2023-02-24T17:50:36.837Z,9.33
2023-02-24T17:53:03.486Z,9.20
2023-02-24T17:55:30.077Z,9.60
2023-02-24T17:57:57.305Z,9.47
2023-02-24T18:00:23.902Z,9.87
2023-02-24T18:02:50.566Z,9.40
2023-02-24T18:05:17.173Z,8.80
2023-02-24T18:07:43.684Z,10.60
2023-02-24T18:10:11.259Z,10.50
2023-02-24T18:12:38.094Z,10.40
2023-02-24T18:15:09.115Z,9.47
2023-02-24T18:17:37.352Z,10.70
2023-02-24T18:20:05.318Z,9.70
2023-02-24T18:22:31.918Z,13.90
2023-02-24T18:24:59.412Z,22.53
2023-02-24T18:27:26.008Z,24.20
2023-02-24T18:29:53.752Z,22.03
2023-02-24T18:32:20.576Z,20.63
2023-02-24T18:34:47.223Z,17.43
2023-02-24T18:37:13.746Z,17.67
2023-02-24T18:39:40.291Z,15.30
2023-02-24T18:42:06.872Z,14.67
2023-02-24T18:44:33.364Z,14.90
2023-02-24T18:46:59.989Z,15.77
2023-02-24T18:49:26.581Z,16.67
2023-02-24T18:51:53.122Z,14.37
2023-02-24T18:54:20.273Z,13.80
2023-02-24T18:56:46.943Z,15.63
2023-02-24T18:59:13.408Z,17.00
2023-02-24T19:01:40.346Z,16.33
2023-02-24T19:04:08.122Z,15.07
2023-02-24T19:06:35.552Z,13.80
2023-02-24T19:09:09.769Z,16.10
2023-02-24T19:11:37.438Z,15.90
2023-02-24T19:14:04.437Z,16.97
2023-02-24T19:16:31.540Z,16.17
2023-02-24T19:18:59.979Z,15.17
2023-02-24T19:21:28.133Z,14.37
2023-02-24T19:23:54.925Z,12.97
2023-02-24T19:26:24.669Z,14.47
2023-02-24T19:28:51.604Z,16.60
2023-02-24T19:31:20.664Z,17.07
2023-02-24T19:33:54.522Z,17.00
2023-02-24T19:36:22.203Z,17.70
2023-02-24T19:38:49.076Z,14.63
2023-02-24T19:41:15.654Z,13.17
2023-02-24T19:43:42.136Z,14.03
2023-02-24T19:46:11.484Z,13.90
2023-02-24T19:48:38.890Z,14.40
2023-02-24T19:51:09.506Z,14.70
2023-02-24T19:53:36.070Z,11.00
2023-02-24T19:56:02.684Z,9.73
2023-02-24T19:58:29.311Z,9.70
2023-02-24T20:00:56.082Z,8.67
2023-02-24T20:03:22.632Z,9.90
2023-02-24T20:05:49.118Z,9.13
2023-02-24T20:08:15.857Z,8.20
2023-02-24T20:10:42.491Z,8.13
2023-02-24T20:13:09.065Z,9.03
2023-02-24T20:15:36.081Z,9.60
2023-02-24T20:18:04.728Z,8.27
2023-02-24T20:20:31.768Z,9.47
2023-02-24T20:22:58.544Z,9.07
2023-02-24T20:25:25.265Z,9.40
2023-02-24T20:27:51.843Z,9.33
2023-02-24T20:30:18.780Z,8.73
2023-02-24T20:32:45.496Z,9.43
2023-02-24T20:35:12.158Z,9.13
2023-02-24T20:37:38.825Z,9.17
2023-02-24T20:40:06.071Z,10.20
2023-02-24T20:42:32.852Z,9.23
2023-02-24T20:44:59.416Z,8.80
2023-02-24T20:47:26.085Z,10.60
2023-02-24T20:49:52.610Z,10.80
2023-02-24T20:52:19.175Z,10.73
2023-02-24T20:54:45.769Z,9.90
2023-02-24T20:57:12.273Z,11.50
2023-02-24T20:59:49.211Z,11.00
2023-02-24T21:02:18.532Z,9.63
2023-02-24T21:04:45.083Z,9.40
2023-02-24T21:07:11.805Z,8.93
2023-02-24T21:09:38.471Z,9.80
2023-02-24T21:12:05.621Z,8.77
2023-02-24T21:14:32.273Z,7.43
2023-02-24T21:16:59.624Z,6.73
2023-02-24T21:19:26.145Z,6.23
2023-02-24T21:21:52.784Z,7.33
2023-02-24T21:24:19.465Z,9.53
2023-02-24T21:26:47.539Z,9.90
2023-02-24T21:29:14.215Z,9.17
2023-02-24T21:31:41.394Z,8.93
2023-02-24T21:34:11.666Z,8.57
2023-02-24T21:36:38.488Z,8.07
2023-02-24T21:39:06.707Z,7.73
2023-02-24T21:41:35.602Z,8.70
2023-02-24T21:44:02.157Z,10.40
2023-02-24T21:46:28.903Z,8.10
2023-02-24T21:48:59.062Z,8.30
2023-02-24T21:51:27.497Z,8.23
2023-02-24T21:53:57.013Z,7.97
2023-02-24T21:56:26.486Z,9.70
2023-02-24T21:59:01.819Z,8.90
2023-02-24T22:01:33.808Z,7.97
2023-02-24T22:04:02.427Z,9.50
2023-02-24T22:06:31.780Z,8.63
2023-02-24T22:08:58.913Z,6.60
2023-02-24T22:11:25.598Z,8.13
2023-02-24T22:13:52.246Z,11.43
2023-02-24T22:16:21.965Z,9.03
2023-02-24T22:18:50.196Z,8.13
2023-02-24T22:21:22.186Z,9.50
2023-02-24T22:23:50.543Z,8.20
2023-02-24T22:26:18.781Z,7.73
2023-02-24T22:28:46.990Z,8.57
2023-02-24T22:31:15.487Z,11.27
2023-02-24T22:33:43.153Z,12.10
2023-02-24T22:36:18.748Z,10.10
2023-02-24T22:38:48.196Z,12.60
2023-02-24T22:41:20.311Z,12.47
2023-02-24T22:43:47.479Z,13.07
2023-02-24T22:46:17.141Z,12.67
2023-02-24T22:48:44.068Z,12.70
2023-02-24T22:51:11.845Z,11.93
2023-02-24T22:53:40.719Z,10.60
2023-02-24T22:56:07.721Z,10.13
2023-02-24T22:58:34.393Z,9.63
2023-02-24T23:01:00.913Z,10.40
2023-02-24T23:03:30.871Z,9.70
2023-02-24T23:06:01.736Z,9.17
2023-02-24T23:08:30.924Z,10.20
2023-02-24T23:11:04.465Z,10.47
2023-02-24T23:13:35.128Z,9.87
2023-02-24T23:16:03.738Z,7.80
2023-02-24T23:18:31.231Z,8.00
2023-02-24T23:21:03.399Z,3.73
2023-02-24T23:23:30.982Z,4.20
2023-02-24T23:25:57.837Z,3.13
2023-02-24T23:28:27.779Z,2.67
2023-02-24T23:30:55.247Z,2.10
2023-02-24T23:33:23.050Z,1.83
2023-02-24T23:35:50.002Z,2.60
2023-02-24T23:38:16.999Z,2.23
2023-02-24T23:40:49.977Z,2.03
2023-02-24T23:43:17.150Z,2.30
2023-02-24T23:45:43.633Z,2.10
2023-02-24T23:48:13.013Z,2.20
2023-02-24T23:50:43.119Z,2.10
2023-02-24T23:53:12.723Z,2.40
2023-02-24T23:55:40.905Z,2.27
2023-02-24T23:58:08.207Z,1.60
